CheckWX is a tool to help pilots better visualize weather data.  It is not intended as a substitute for an official pre-flight weather briefing.

16:54:18 UTC

MMLT TAF
Loreto International Airport
Loreto, Mexico
TAF MMLT 180525Z 1806/1906 14008KT P6SM SKC FM181800 14010KT P6SM SKC FM190400 16005KT P6SM SKC

Jun-18@
06:00 UTC

Jun-18 @ 06:00 UTC

Jun-18@
18:00 UTC

Jun-18 @ 18:00 UTC

TAF MMLT 180525Z 1806/1906 14008KT P6SM SKC
Wind
  • 140° at 8 KTS
Cloud Levels
  • Clear skies

Jun-18@
18:00 UTC

Jun-18 @ 18:00 UTC

Jun-19@
04:00 UTC

Jun-19 @ 04:00 UTC

FM181800 14010KT P6SM SKC

From

From Standard forecast or significant change

Wind
  • 140° at 10 KTS
Cloud Levels
  • Clear skies

Jun-19@
04:00 UTC

Jun-19 @ 04:00 UTC

Jun-19@
06:00 UTC

Jun-19 @ 06:00 UTC

FM190400 16005KT P6SM SKC

From

From Standard forecast or significant change

Wind
  • 160° at 5 KTS
Cloud Levels
  • Clear skies